createdAt,value
2023-04-21T00:00:57.649Z,1.86
2023-04-21T00:01:57.584Z,1.76
2023-04-21T00:02:57.607Z,1.90
2023-04-21T00:03:57.610Z,1.66
2023-04-21T00:04:57.457Z,2.53
2023-04-21T00:05:57.406Z,1.92
2023-04-21T00:06:57.286Z,1.72
2023-04-21T00:07:57.217Z,1.99
2023-04-21T00:08:57.172Z,1.65
2023-04-21T00:09:57.098Z,1.69
2023-04-21T00:10:57.051Z,2.01
2023-04-21T00:11:56.990Z,1.56
2023-04-21T00:12:56.925Z,1.69
2023-04-21T00:13:56.868Z,1.51
2023-04-21T00:14:56.816Z,1.40
2023-04-21T00:15:56.782Z,1.60
2023-04-21T00:16:56.693Z,1.91
2023-04-21T00:17:56.655Z,1.71
2023-04-21T00:18:56.575Z,1.85
2023-04-21T00:19:56.509Z,2.03
2023-04-21T00:20:56.446Z,1.63
2023-04-21T00:21:56.374Z,1.65
2023-04-21T00:22:56.313Z,2.33
2023-04-21T00:23:56.260Z,1.92
2023-04-21T00:24:56.196Z,1.84
2023-04-21T00:25:56.150Z,2.02
2023-04-21T00:26:56.078Z,1.66
2023-04-21T00:27:56.019Z,1.75
2023-04-21T00:28:55.964Z,1.97
2023-04-21T00:29:55.904Z,1.78
2023-04-21T00:30:55.838Z,1.49
2023-04-21T00:31:55.933Z,1.42
2023-04-21T00:32:55.714Z,1.55
2023-04-21T00:33:55.646Z,1.59
2023-04-21T00:34:55.628Z,2.07
2023-04-21T00:35:55.564Z,1.80
2023-04-21T00:36:55.529Z,1.75
2023-04-21T00:37:55.417Z,1.79
2023-04-21T00:38:55.337Z,1.74
2023-04-21T00:39:55.438Z,1.62
2023-04-21T00:40:55.297Z,1.54
2023-04-21T00:41:55.158Z,1.99
2023-04-21T00:42:55.098Z,1.72
2023-04-21T00:43:55.031Z,1.45
2023-04-21T00:44:54.985Z,1.79
2023-04-21T00:45:54.944Z,1.69
2023-04-21T00:46:54.922Z,1.38
2023-04-21T00:47:54.905Z,1.67
2023-04-21T00:48:54.743Z,1.73
2023-04-21T00:49:54.686Z,1.79
2023-04-21T00:50:54.640Z,1.79
2023-04-21T00:51:54.598Z,1.42
2023-04-21T00:52:54.536Z,2.44
2023-04-21T00:53:54.469Z,1.15
2023-04-21T00:54:54.431Z,1.42
2023-04-21T00:55:54.373Z,1.75
2023-04-21T00:56:54.320Z,1.73
2023-04-21T00:57:54.273Z,1.90
2023-04-21T00:58:54.230Z,1.61
2023-04-21T00:59:54.177Z,1.41
2023-04-21T01:00:54.200Z,1.77
2023-04-21T01:01:54.139Z,1.52
2023-04-21T01:02:54.236Z,1.32
2023-04-21T01:03:54.053Z,1.63
2023-04-21T01:04:53.946Z,1.46
2023-04-21T01:05:53.894Z,1.37
2023-04-21T01:06:53.850Z,1.99
2023-04-21T01:07:53.792Z,1.89
2023-04-21T01:08:53.741Z,1.67
2023-04-21T01:09:53.687Z,2.06
2023-04-21T01:10:53.637Z,1.83
2023-04-21T01:11:53.589Z,2.01
2023-04-21T01:12:53.542Z,1.60
2023-04-21T01:13:53.493Z,1.57
2023-04-21T01:14:53.435Z,1.78
2023-04-21T01:15:53.386Z,1.88
2023-04-21T01:16:53.389Z,2.20
2023-04-21T01:17:53.356Z,1.56
2023-04-21T01:18:53.246Z,1.63
2023-04-21T01:19:53.184Z,1.77
2023-04-21T01:20:53.142Z,2.02
2023-04-21T01:21:53.096Z,1.50
2023-04-21T01:22:53.041Z,1.71
2023-04-21T01:23:53.000Z,1.48
2023-04-21T01:24:52.968Z,1.84
2023-04-21T01:25:52.903Z,1.84
2023-04-21T01:26:52.857Z,1.83
2023-04-21T01:27:52.800Z,2.00
2023-04-21T01:28:52.747Z,2.14
2023-04-21T01:29:52.757Z,1.42
2023-04-21T01:30:52.889Z,1.41
2023-04-21T01:31:52.605Z,2.12
2023-04-21T01:32:52.569Z,1.83
2023-04-21T01:33:52.485Z,1.58
2023-04-21T01:34:52.424Z,1.65
2023-04-21T01:35:52.369Z,1.50
2023-04-21T01:36:52.313Z,2.14
2023-04-21T01:37:52.250Z,1.65
2023-04-21T01:38:52.182Z,1.58
2023-04-21T01:39:52.171Z,1.52
2023-04-21T01:40:52.089Z,1.73
2023-04-21T01:41:52.039Z,1.52
2023-04-21T01:42:51.970Z,1.53
2023-04-21T01:43:51.968Z,2.03
2023-04-21T01:44:51.869Z,1.81
2023-04-21T01:45:51.875Z,1.96
2023-04-21T01:46:51.780Z,1.76
2023-04-21T01:47:51.742Z,1.84
2023-04-21T01:48:51.663Z,1.61
2023-04-21T01:49:51.604Z,1.92
2023-04-21T01:50:51.561Z,1.96
2023-04-21T01:51:51.509Z,1.90
2023-04-21T01:52:51.467Z,2.32
2023-04-21T01:53:51.413Z,1.72
2023-04-21T01:54:51.362Z,1.98
2023-04-21T01:55:51.326Z,1.45
2023-04-21T01:56:51.335Z,1.57
2023-04-21T01:57:51.225Z,1.34
2023-04-21T01:58:51.182Z,1.46
2023-04-21T01:59:51.147Z,1.77
2023-04-21T02:00:51.097Z,1.84
2023-04-21T02:01:51.134Z,1.66
2023-04-21T02:02:51.077Z,1.28
2023-04-21T02:03:51.336Z,1.93
2023-04-21T02:04:50.893Z,1.65
2023-04-21T02:05:50.871Z,1.41
2023-04-21T02:06:50.801Z,1.50
2023-04-21T02:07:50.757Z,1.45
2023-04-21T02:08:50.709Z,1.53
2023-04-21T02:09:50.667Z,1.72
2023-04-21T02:10:50.610Z,1.58
2023-04-21T02:11:50.554Z,1.69
2023-04-21T02:12:50.509Z,1.57
2023-04-21T02:13:50.458Z,1.32
2023-04-21T02:14:50.477Z,1.42
2023-04-21T02:15:53.090Z,2.47
2023-04-21T02:16:51.323Z,1.84
2023-04-21T02:17:50.187Z,1.45
2023-04-21T02:18:50.079Z,1.67
2023-04-21T02:19:49.988Z,1.71
2023-04-21T02:20:49.907Z,2.02
2023-04-21T02:21:49.800Z,1.44
2023-04-21T02:22:49.711Z,1.56
2023-04-21T02:23:49.615Z,1.38
2023-04-21T02:24:49.514Z,1.43
2023-04-21T02:25:49.440Z,1.54
2023-04-21T02:26:49.356Z,1.83
2023-04-21T02:27:49.254Z,1.61
2023-04-21T02:28:49.171Z,2.12
2023-04-21T02:29:49.076Z,2.35
2023-04-21T02:30:49.000Z,1.59
2023-04-21T02:31:58.856Z,1.80
2023-04-21T02:32:50.051Z,1.55
2023-04-21T02:33:48.769Z,1.66
2023-04-21T02:34:48.669Z,1.92
2023-04-21T02:35:48.593Z,2.20
2023-04-21T02:36:48.525Z,1.62
2023-04-21T02:37:48.405Z,1.23
2023-04-21T02:38:48.317Z,1.74
2023-04-21T02:39:48.218Z,1.75
2023-04-21T02:40:48.131Z,1.80
2023-04-21T02:41:48.035Z,1.70
2023-04-21T02:42:47.970Z,1.79
2023-04-21T02:43:47.862Z,1.60
2023-04-21T02:44:47.773Z,1.57
2023-04-21T02:45:47.680Z,1.81
2023-04-21T02:46:47.651Z,2.02
2023-04-21T02:47:47.565Z,1.45
2023-04-21T02:48:47.435Z,1.78
2023-04-21T02:49:47.394Z,1.79
2023-04-21T02:50:47.329Z,1.50
2023-04-21T02:51:47.280Z,1.47
2023-04-21T02:52:47.236Z,1.53
2023-04-21T02:53:47.175Z,2.07
2023-04-21T02:54:47.126Z,1.57
2023-04-21T02:55:47.102Z,1.58
2023-04-21T02:56:47.027Z,1.50
2023-04-21T02:57:46.979Z,1.06
2023-04-21T02:58:46.925Z,1.36
2023-04-21T02:59:46.877Z,1.94
2023-04-21T03:00:46.869Z,1.95
2023-04-21T03:01:46.783Z,1.71
2023-04-21T03:02:46.809Z,1.44
2023-04-21T03:03:46.773Z,2.37
2023-04-21T03:04:46.646Z,1.86
2023-04-21T03:05:46.615Z,1.69
2023-04-21T03:06:46.542Z,1.48
2023-04-21T03:07:46.485Z,1.80
2023-04-21T03:08:46.433Z,1.50
2023-04-21T03:09:46.371Z,1.19
2023-04-21T03:10:46.326Z,1.24
2023-04-21T03:11:46.271Z,1.52
2023-04-21T03:12:46.220Z,1.71
2023-04-21T03:13:46.175Z,1.85
2023-04-21T03:14:46.121Z,1.52
2023-04-21T03:15:46.065Z,1.39
2023-04-21T03:16:46.021Z,1.66
2023-04-21T03:17:46.002Z,1.85
2023-04-21T03:18:45.893Z,1.60
2023-04-21T03:19:45.865Z,1.50
2023-04-21T03:20:45.785Z,1.76
2023-04-21T03:21:45.725Z,1.72
2023-04-21T03:22:45.671Z,1.83
2023-04-21T03:23:45.606Z,1.45
2023-04-21T03:24:45.560Z,2.10
2023-04-21T03:25:45.497Z,1.70
2023-04-21T03:26:45.446Z,1.69
2023-04-21T03:27:45.385Z,1.64
2023-04-21T03:28:45.333Z,1.54
2023-04-21T03:29:45.268Z,1.70
2023-04-21T03:30:45.216Z,1.76
2023-04-21T03:31:45.192Z,1.83
2023-04-21T03:32:45.136Z,1.68
2023-04-21T03:33:45.038Z,1.53
2023-04-21T03:34:44.984Z,1.40
2023-04-21T03:35:44.924Z,1.53
2023-04-21T03:36:44.873Z,1.47
2023-04-21T03:37:44.801Z,1.55
2023-04-21T03:38:44.747Z,1.66
2023-04-21T03:39:44.690Z,1.77
2023-04-21T03:40:44.633Z,2.08
2023-04-21T03:41:44.570Z,1.82
2023-04-21T03:42:44.495Z,1.19
2023-04-21T03:43:44.424Z,1.96
2023-04-21T03:44:44.348Z,1.51
2023-04-21T03:45:44.315Z,1.84
2023-04-21T03:46:44.234Z,1.62
2023-04-21T03:47:44.217Z,1.42
2023-04-21T03:48:44.088Z,1.44
2023-04-21T03:49:44.022Z,1.31
2023-04-21T03:50:43.951Z,1.46
2023-04-21T03:51:44.003Z,1.19
2023-04-21T03:52:43.812Z,1.53
2023-04-21T03:53:43.737Z,1.82
2023-04-21T03:54:43.671Z,1.18
2023-04-21T03:55:43.597Z,1.38
2023-04-21T03:56:43.533Z,1.38
2023-04-21T03:57:43.473Z,2.20
2023-04-21T03:58:43.379Z,1.94
2023-04-21T03:59:43.314Z,1.37
2023-04-21T04:00:43.246Z,1.39
2023-04-21T04:01:43.182Z,1.52
2023-04-21T04:02:43.245Z,1.48
2023-04-21T04:03:43.217Z,1.59
2023-04-21T04:04:43.121Z,1.32
2023-04-21T04:05:42.911Z,1.56
2023-04-21T04:06:42.824Z,1.80
2023-04-21T04:07:42.757Z,1.52
2023-04-21T04:08:42.679Z,1.79
2023-04-21T04:09:42.610Z,1.50
2023-04-21T04:10:42.538Z,1.29
2023-04-21T04:11:42.485Z,1.44
2023-04-21T04:12:42.401Z,2.01
2023-04-21T04:13:42.348Z,1.72
2023-04-21T04:14:42.301Z,1.49
2023-04-21T04:15:42.222Z,1.55
2023-04-21T04:16:42.134Z,1.76
2023-04-21T04:17:42.090Z,1.61
2023-04-21T04:18:41.978Z,1.39
2023-04-21T04:19:41.920Z,1.83
2023-04-21T04:20:41.849Z,1.91
2023-04-21T04:21:41.777Z,1.33
2023-04-21T04:22:41.706Z,1.37
2023-04-21T04:23:41.633Z,1.54
2023-04-21T04:24:41.558Z,1.69
2023-04-21T04:25:41.494Z,1.16
2023-04-21T04:26:41.433Z,1.94
2023-04-21T04:27:41.352Z,1.20
2023-04-21T04:28:41.282Z,1.40
2023-04-21T04:29:41.217Z,1.63
2023-04-21T04:30:41.141Z,1.48
2023-04-21T04:31:41.157Z,1.45
2023-04-21T04:32:41.073Z,1.38
2023-04-21T04:33:40.924Z,1.76
2023-04-21T04:34:40.869Z,1.60
2023-04-21T04:35:40.780Z,1.59
2023-04-21T04:36:40.724Z,1.90
2023-04-21T04:37:40.647Z,1.69
2023-04-21T04:38:40.568Z,1.43
2023-04-21T04:39:40.497Z,1.55
2023-04-21T04:40:40.429Z,2.10
2023-04-21T04:41:40.347Z,1.38
2023-04-21T04:42:40.277Z,1.59
2023-04-21T04:43:40.189Z,1.32
2023-04-21T04:44:40.093Z,1.65
2023-04-21T04:45:40.019Z,1.61
2023-04-21T04:46:40.003Z,1.61
2023-04-21T04:47:39.909Z,1.56
2023-04-21T04:48:39.792Z,1.77
2023-04-21T04:49:39.720Z,1.44
2023-04-21T04:50:39.628Z,1.68
2023-04-21T04:51:39.549Z,1.33
2023-04-21T04:52:39.464Z,1.41
2023-04-21T04:53:39.392Z,1.39
2023-04-21T04:54:39.316Z,1.70
2023-04-21T04:55:39.233Z,1.26
2023-04-21T04:56:39.155Z,1.39
2023-04-21T04:57:39.082Z,1.53
2023-04-21T04:58:38.999Z,1.91
2023-04-21T04:59:38.908Z,1.47
2023-04-21T05:00:38.837Z,1.75
2023-04-21T05:01:38.771Z,1.83
2023-04-21T05:02:38.928Z,1.24
2023-04-21T05:03:38.704Z,1.84
2023-04-21T05:04:38.547Z,1.59
2023-04-21T05:05:38.436Z,1.33
2023-04-21T05:06:38.371Z,1.47
2023-04-21T05:07:38.306Z,1.31
2023-04-21T05:08:38.200Z,1.67
2023-04-21T05:09:38.127Z,1.53
2023-04-21T05:10:38.036Z,1.05
2023-04-21T05:11:37.950Z,1.47
2023-04-21T05:12:37.875Z,1.43
2023-04-21T05:13:40.046Z,1.34
2023-04-21T05:14:37.774Z,1.36
2023-04-21T05:15:37.701Z,1.43
2023-04-21T05:16:37.698Z,1.40
2023-04-21T05:17:37.583Z,1.73
2023-04-21T05:18:37.471Z,1.96
2023-04-21T05:19:37.415Z,1.40
2023-04-21T05:20:37.327Z,1.56
2023-04-21T05:21:37.246Z,1.35
2023-04-21T05:22:37.158Z,1.33
2023-04-21T05:23:37.074Z,1.04
2023-04-21T05:24:36.996Z,1.72
2023-04-21T05:25:36.906Z,1.32
2023-04-21T05:26:36.839Z,1.77
2023-04-21T05:27:36.754Z,2.12
2023-04-21T05:28:36.671Z,2.24
2023-04-21T05:29:36.589Z,2.02
2023-04-21T05:30:36.501Z,1.71
2023-04-21T05:31:36.435Z,1.97
2023-04-21T05:32:37.062Z,1.55
2023-04-21T05:33:36.242Z,1.69
2023-04-21T05:34:36.152Z,1.97
2023-04-21T05:35:37.907Z,2.16
2023-04-21T05:36:35.972Z,2.32
2023-04-21T05:37:35.896Z,2.07
2023-04-21T05:38:35.807Z,1.89
2023-04-21T05:39:35.721Z,2.07
2023-04-21T05:40:35.650Z,2.40
2023-04-21T05:41:35.556Z,2.46
2023-04-21T05:42:35.488Z,1.98
2023-04-21T05:43:35.414Z,1.71
2023-04-21T05:44:36.028Z,2.09
2023-04-21T05:45:35.247Z,1.60
2023-04-21T05:46:36.028Z,1.78
2023-04-21T05:47:35.122Z,1.89
2023-04-21T05:48:35.012Z,2.13
2023-04-21T05:49:34.925Z,1.96
2023-04-21T05:50:34.848Z,2.46
2023-04-21T05:51:34.752Z,2.22
2023-04-21T05:52:34.727Z,2.10
2023-04-21T05:53:34.602Z,2.15
2023-04-21T05:54:34.517Z,1.92
2023-04-21T05:55:34.424Z,1.83
2023-04-21T05:56:34.353Z,1.92
2023-04-21T05:57:34.259Z,2.10
2023-04-21T05:58:34.199Z,2.25
2023-04-21T05:59:34.113Z,1.98
2023-04-21T06:00:34.021Z,2.22
2023-04-21T06:01:33.973Z,2.29
2023-04-21T06:02:33.949Z,2.37
2023-04-21T06:03:33.936Z,1.97
2023-04-21T06:04:33.825Z,2.18
2023-04-21T06:05:33.755Z,2.68
2023-04-21T06:06:33.563Z,2.05
2023-04-21T06:07:33.498Z,2.11
2023-04-21T06:08:33.494Z,2.29
2023-04-21T06:09:33.339Z,2.30
2023-04-21T06:10:33.997Z,2.45
2023-04-21T06:11:33.177Z,2.17
2023-04-21T06:12:33.096Z,2.36
2023-04-21T06:13:33.029Z,2.34
2023-04-21T06:14:33.003Z,2.62
2023-04-21T06:15:32.868Z,1.99
2023-04-21T06:16:32.856Z,2.19
2023-04-21T06:17:32.757Z,2.45
2023-04-21T06:18:32.644Z,2.06
2023-04-21T06:19:32.579Z,2.56
2023-04-21T06:20:32.502Z,2.16
2023-04-21T06:21:32.421Z,2.29
2023-04-21T06:22:32.336Z,2.05
2023-04-21T06:23:32.260Z,1.62
2023-04-21T06:24:32.172Z,2.73
2023-04-21T06:25:32.157Z,2.39
2023-04-21T06:26:32.001Z,2.53
2023-04-21T06:27:31.925Z,2.30
2023-04-21T06:28:31.878Z,2.22
2023-04-21T06:29:31.839Z,2.50
2023-04-21T06:30:31.818Z,2.37
2023-04-21T06:31:31.820Z,1.98
2023-04-21T06:32:31.781Z,2.40
2023-04-21T06:33:31.731Z,2.52
2023-04-21T06:34:31.730Z,2.52
2023-04-21T06:35:31.682Z,2.26
2023-04-21T06:36:31.641Z,2.55
2023-04-21T06:37:31.601Z,2.85
2023-04-21T06:38:31.554Z,2.38
2023-04-21T06:39:31.514Z,2.80
2023-04-21T06:40:31.463Z,2.49
2023-04-21T06:41:31.406Z,2.22
2023-04-21T06:42:31.350Z,2.84
2023-04-21T06:43:31.289Z,2.11
2023-04-21T06:44:31.228Z,2.62
2023-04-21T06:45:31.171Z,2.42
2023-04-21T06:46:31.106Z,2.92
2023-04-21T06:47:31.060Z,3.08
2023-04-21T06:48:31.013Z,2.56
2023-04-21T06:49:30.907Z,2.80
2023-04-21T06:50:30.837Z,2.19
2023-04-21T06:51:30.778Z,2.74
2023-04-21T06:52:30.723Z,2.17
2023-04-21T06:53:30.637Z,2.10
2023-04-21T06:54:30.573Z,2.95
2023-04-21T06:55:30.489Z,2.11
2023-04-21T06:56:30.423Z,2.90
2023-04-21T06:57:30.342Z,2.32
2023-04-21T06:58:30.248Z,2.59
2023-04-21T06:59:30.167Z,2.48
2023-04-21T07:00:30.080Z,2.97
2023-04-21T07:01:30.034Z,2.89
2023-04-21T07:02:29.979Z,2.49
2023-04-21T07:03:29.898Z,2.16
2023-04-21T07:04:29.787Z,3.00
2023-04-21T07:05:29.682Z,2.92
2023-04-21T07:06:29.589Z,2.70
2023-04-21T07:07:29.508Z,2.20
2023-04-21T07:08:29.430Z,2.43
2023-04-21T07:09:29.351Z,2.24
2023-04-21T07:10:29.370Z,2.47
2023-04-21T07:11:29.292Z,1.94
2023-04-21T07:12:29.204Z,2.16
2023-04-21T07:13:29.115Z,1.58
2023-04-21T07:14:29.040Z,2.29
2023-04-21T07:15:28.929Z,2.64
2023-04-21T07:16:28.962Z,2.50
2023-04-21T07:17:28.868Z,3.01
2023-04-21T07:18:28.750Z,2.61
2023-04-21T07:19:28.653Z,2.64
2023-04-21T07:20:28.598Z,2.47
2023-04-21T07:21:28.471Z,2.06
2023-04-21T07:22:28.371Z,3.04
2023-04-21T07:23:28.286Z,2.54
2023-04-21T07:24:28.194Z,2.71
2023-04-21T07:25:28.093Z,2.50
2023-04-21T07:26:28.005Z,2.68
2023-04-21T07:27:27.924Z,2.80
2023-04-21T07:28:27.822Z,2.62
2023-04-21T07:29:27.723Z,2.51
2023-04-21T07:30:27.633Z,2.75
2023-04-21T07:31:27.570Z,2.86
2023-04-21T07:32:27.503Z,2.40
2023-04-21T07:33:27.339Z,2.45
2023-04-21T07:34:27.247Z,2.87
2023-04-21T07:35:27.230Z,2.83
2023-04-21T07:36:27.152Z,2.40
2023-04-21T07:37:27.089Z,2.28
2023-04-21T07:38:26.958Z,2.31
2023-04-21T07:39:26.867Z,2.43
2023-04-21T07:40:26.858Z,2.35
2023-04-21T07:41:26.756Z,2.62
2023-04-21T07:42:26.658Z,2.36
2023-04-21T07:43:27.454Z,2.00
2023-04-21T07:44:26.452Z,2.50
2023-04-21T07:45:26.377Z,2.11
2023-04-21T07:46:26.286Z,2.38
2023-04-21T07:47:26.204Z,2.33
2023-04-21T07:48:26.056Z,2.19
2023-04-21T07:49:26.058Z,3.12
2023-04-21T07:50:26.073Z,2.66
2023-04-21T07:51:26.130Z,2.42
2023-04-21T07:52:25.955Z,2.68
2023-04-21T07:53:25.858Z,2.45
2023-04-21T07:54:25.758Z,4.06
2023-04-21T07:55:25.683Z,2.02
2023-04-21T07:56:25.584Z,2.53
2023-04-21T07:57:25.537Z,2.60
2023-04-21T07:58:25.558Z,2.72
2023-04-21T07:59:25.521Z,2.40
2023-04-21T08:00:27.080Z,2.30
2023-04-21T08:01:25.226Z,3.58
2023-04-21T08:02:25.310Z,2.51
2023-04-21T08:03:25.215Z,2.53
2023-04-21T08:04:25.219Z,2.03
2023-04-21T08:05:27.404Z,2.47
2023-04-21T08:06:24.941Z,2.45
2023-04-21T08:07:24.712Z,2.82
2023-04-21T08:08:24.575Z,2.35
2023-04-21T08:09:24.477Z,2.89
2023-04-21T08:10:24.398Z,2.44
2023-04-21T08:11:24.432Z,2.57
2023-04-21T08:12:24.167Z,2.20
2023-04-21T08:13:24.069Z,2.51
2023-04-21T08:14:24.468Z,2.36
2023-04-21T08:15:23.859Z,2.15
2023-04-21T08:16:23.724Z,2.06
2023-04-21T08:17:23.645Z,2.74
2023-04-21T08:18:23.669Z,2.31
2023-04-21T08:19:23.400Z,2.40
2023-04-21T08:20:23.365Z,2.14
2023-04-21T08:21:23.206Z,2.52
2023-04-21T08:22:23.104Z,2.19
2023-04-21T08:23:23.246Z,2.02
2023-04-21T08:24:23.172Z,2.87
2023-04-21T08:25:22.813Z,2.69
2023-04-21T08:26:22.694Z,2.69
2023-04-21T08:27:22.614Z,2.12
2023-04-21T08:28:22.513Z,2.56
2023-04-21T08:29:22.388Z,2.70
2023-04-21T08:30:22.309Z,2.70
2023-04-21T08:31:22.291Z,2.74
2023-04-21T08:32:22.102Z,2.47
2023-04-21T08:33:22.065Z,2.73
2023-04-21T08:34:24.301Z,2.74
2023-04-21T08:35:21.802Z,2.82
2023-04-21T08:36:28.838Z,2.94
2023-04-21T08:37:22.577Z,2.76
2023-04-21T08:38:21.477Z,2.35
2023-04-21T08:39:21.681Z,2.40
2023-04-21T08:40:21.262Z,2.24
2023-04-21T08:41:21.164Z,2.78
2023-04-21T08:42:21.060Z,2.38
2023-04-21T08:43:20.959Z,2.70
2023-04-21T08:44:21.146Z,2.71
2023-04-21T08:45:20.827Z,2.05
2023-04-21T08:46:20.825Z,2.68
2023-04-21T08:47:20.848Z,2.25
2023-04-21T08:48:20.694Z,3.01
2023-04-21T08:49:20.813Z,1.97
2023-04-21T08:50:20.618Z,2.45
2023-04-21T08:51:20.649Z,1.88
2023-04-21T08:52:20.532Z,2.08
2023-04-21T08:53:20.493Z,2.31
2023-04-21T08:54:20.456Z,2.38
2023-04-21T08:55:20.429Z,2.26
2023-04-21T08:56:20.369Z,1.91
2023-04-21T08:57:20.319Z,2.97
2023-04-21T08:58:20.277Z,2.05
2023-04-21T08:59:20.359Z,2.12
2023-04-21T09:00:20.236Z,2.17
2023-04-21T09:01:20.169Z,2.13
2023-04-21T09:02:20.135Z,2.42
2023-04-21T09:03:26.093Z,1.85
2023-04-21T09:04:21.096Z,2.02
2023-04-21T09:05:20.218Z,2.24
2023-04-21T09:06:19.861Z,1.71
2023-04-21T09:07:19.650Z,2.33
2023-04-21T09:08:19.548Z,2.17
2023-04-21T09:09:19.715Z,2.21
2023-04-21T09:10:19.345Z,2.42
2023-04-21T09:11:19.219Z,2.00
2023-04-21T09:12:19.128Z,2.18
2023-04-21T09:13:19.015Z,1.97
2023-04-21T09:14:18.902Z,2.24
2023-04-21T09:15:18.860Z,2.52
2023-04-21T09:16:18.866Z,1.95
2023-04-21T09:17:18.769Z,1.97
2023-04-21T09:18:18.689Z,2.13
2023-04-21T09:19:18.994Z,2.56
2023-04-21T09:20:18.597Z,1.99
2023-04-21T09:21:18.608Z,2.60
2023-04-21T09:22:18.488Z,2.31
2023-04-21T09:23:18.456Z,2.00
2023-04-21T09:24:18.379Z,2.22
2023-04-21T09:25:18.347Z,2.11
2023-04-21T09:26:18.260Z,2.23
2023-04-21T09:27:18.230Z,2.02
2023-04-21T09:28:18.190Z,2.28
2023-04-21T09:29:18.278Z,1.75
2023-04-21T09:30:18.098Z,2.07
2023-04-21T09:31:18.114Z,2.44
2023-04-21T09:32:18.008Z,1.99
2023-04-21T09:33:28.764Z,2.29
2023-04-21T09:34:18.867Z,2.00
2023-04-21T09:35:17.773Z,2.39
2023-04-21T09:36:17.658Z,2.03
2023-04-21T09:37:19.194Z,2.34
2023-04-21T09:38:17.463Z,2.46
2023-04-21T09:40:18.017Z,2.09
2023-04-21T09:41:17.146Z,1.80
2023-04-21T09:42:17.049Z,1.92
2023-04-21T09:43:16.937Z,2.08
2023-04-21T09:44:16.973Z,4.32
2023-04-21T09:45:36.580Z,2.19
2023-04-21T09:46:17.646Z,1.88
2023-04-21T09:47:16.497Z,1.60
2023-04-21T09:48:16.399Z,1.74
2023-04-21T09:49:17.098Z,2.43
2023-04-21T09:50:16.415Z,2.44
2023-04-21T09:51:28.213Z,2.29
2023-04-21T09:52:19.375Z,2.00
2023-04-21T09:53:15.889Z,2.12
2023-04-21T09:54:28.375Z,1.63
2023-04-21T09:55:16.674Z,1.84
2023-04-21T09:56:15.570Z,1.87
2023-04-21T09:57:15.476Z,1.75
2023-04-21T09:58:15.370Z,2.12
2023-04-21T09:59:15.273Z,2.16
2023-04-21T10:00:15.187Z,1.75
2023-04-21T10:01:15.197Z,2.14
2023-04-21T10:02:15.082Z,1.55
2023-04-21T10:03:14.978Z,2.42
2023-04-21T10:04:14.883Z,1.87
2023-04-21T10:05:14.712Z,1.84
2023-04-21T10:06:14.960Z,2.44
2023-04-21T10:07:14.484Z,2.22
2023-04-21T10:08:14.405Z,1.45
2023-04-21T10:09:14.335Z,1.98
2023-04-21T10:10:14.254Z,1.79
2023-04-21T10:11:15.100Z,1.87
2023-04-21T10:12:14.097Z,1.49
2023-04-21T10:13:14.031Z,2.05
2023-04-21T10:14:13.938Z,2.18
2023-04-21T10:15:13.840Z,1.81
2023-04-21T10:16:13.878Z,2.09
2023-04-21T10:17:13.672Z,2.15
2023-04-21T10:18:13.719Z,1.83
2023-04-21T10:19:13.683Z,1.91
2023-04-21T10:20:13.505Z,1.56
2023-04-21T10:21:13.419Z,2.08
2023-04-21T10:22:13.319Z,1.78
2023-04-21T10:23:13.318Z,1.63
2023-04-21T10:24:13.303Z,2.57
2023-04-21T10:25:13.225Z,1.47
2023-04-21T10:26:13.134Z,1.56
2023-04-21T10:27:13.028Z,1.71
2023-04-21T10:28:12.946Z,1.83
2023-04-21T10:29:12.868Z,1.43
2023-04-21T10:30:12.824Z,1.22
2023-04-21T10:31:12.845Z,1.23
2023-04-21T10:32:12.756Z,1.37
2023-04-21T10:33:12.629Z,1.54
2023-04-21T10:34:12.547Z,2.50
2023-04-21T10:35:12.474Z,1.70
2023-04-21T10:36:12.449Z,1.53
2023-04-21T10:37:12.326Z,1.55
2023-04-21T10:38:12.258Z,1.37
2023-04-21T10:39:12.183Z,1.15
2023-04-21T10:40:12.091Z,1.30
2023-04-21T10:41:12.102Z,1.39
2023-04-21T10:42:11.951Z,1.06
2023-04-21T10:43:11.870Z,1.18
2023-04-21T10:44:11.789Z,1.35
2023-04-21T10:45:11.770Z,1.28
2023-04-21T10:46:11.606Z,1.38
2023-04-21T10:47:11.579Z,1.30
2023-04-21T10:48:11.502Z,1.14
2023-04-21T10:49:11.398Z,1.28
2023-04-21T10:50:11.349Z,1.22
2023-04-21T10:51:11.301Z,1.36
2023-04-21T10:52:11.240Z,1.07
2023-04-21T10:53:11.223Z,1.22
2023-04-21T10:54:11.173Z,0.80
2023-04-21T10:55:11.144Z,1.05
2023-04-21T10:56:11.116Z,0.71
2023-04-21T10:57:11.080Z,1.34
2023-04-21T10:58:11.010Z,1.00
2023-04-21T10:59:10.981Z,1.21
2023-04-21T11:00:10.917Z,0.75
2023-04-21T11:01:10.909Z,1.18
2023-04-21T11:02:10.917Z,0.84
2023-04-21T11:03:10.938Z,1.23
2023-04-21T11:04:10.884Z,0.98
2023-04-21T11:05:10.806Z,0.81
2023-04-21T11:06:10.756Z,1.06
2023-04-21T11:07:10.711Z,1.47
2023-04-21T11:08:10.651Z,1.19
2023-04-21T11:09:10.628Z,1.29
2023-04-21T11:10:10.585Z,0.97
2023-04-21T11:11:10.535Z,1.53
2023-04-21T11:12:10.488Z,1.30
2023-04-21T11:13:10.441Z,1.13
2023-04-21T11:14:10.402Z,1.16
2023-04-21T11:15:10.345Z,1.03
2023-04-21T11:16:10.322Z,0.96
2023-04-21T11:17:10.300Z,0.96
2023-04-21T11:18:10.289Z,1.48
2023-04-21T11:19:10.179Z,1.18
2023-04-21T11:20:10.153Z,1.17
2023-04-21T11:21:10.101Z,1.06
2023-04-21T11:22:10.051Z,1.27
2023-04-21T11:23:10.000Z,1.20
2023-04-21T11:24:09.948Z,1.04
2023-04-21T11:25:09.899Z,0.83
2023-04-21T11:26:09.858Z,0.98
2023-04-21T11:27:09.816Z,1.05
2023-04-21T11:28:09.764Z,0.77
2023-04-21T11:29:09.725Z,1.06
2023-04-21T11:30:09.674Z,1.00
2023-04-21T11:31:09.704Z,1.31
2023-04-21T11:32:09.764Z,1.05
2023-04-21T11:33:09.532Z,1.12
2023-04-21T11:34:09.386Z,1.15
2023-04-21T11:35:09.296Z,1.21
2023-04-21T11:36:09.184Z,1.15
2023-04-21T11:37:09.083Z,0.93
2023-04-21T11:38:09.055Z,1.02
2023-04-21T11:39:08.877Z,0.96
2023-04-21T11:40:08.824Z,1.00
2023-04-21T11:41:08.796Z,1.01
2023-04-21T11:42:08.769Z,1.15
2023-04-21T11:43:08.730Z,0.90
2023-04-21T11:44:08.712Z,1.18
2023-04-21T11:45:08.669Z,1.08
2023-04-21T11:46:08.701Z,1.16
2023-04-21T11:47:08.615Z,1.04
2023-04-21T11:48:08.606Z,0.95
2023-04-21T11:49:08.551Z,1.20
2023-04-21T11:50:08.505Z,0.89
2023-04-21T11:51:08.510Z,0.84
2023-04-21T11:52:08.448Z,1.05
2023-04-21T11:53:08.408Z,0.81
2023-04-21T11:54:08.348Z,1.05
2023-04-21T11:55:08.305Z,1.11
2023-04-21T11:56:08.278Z,1.14
2023-04-21T11:57:08.253Z,0.81
2023-04-21T11:58:08.231Z,1.22
2023-04-21T11:59:08.189Z,1.00
2023-04-21T12:00:08.131Z,0.89
2023-04-21T12:01:08.074Z,0.98
2023-04-21T12:02:08.017Z,0.85
2023-04-21T12:03:08.099Z,0.94
2023-04-21T12:04:08.087Z,0.98
2023-04-21T12:05:08.177Z,0.83
2023-04-21T12:06:07.948Z,1.01
2023-04-21T12:07:07.781Z,1.51
2023-04-21T12:08:07.704Z,0.92
2023-04-21T12:09:07.619Z,0.77
2023-04-21T12:10:07.534Z,0.86
2023-04-21T12:11:07.453Z,0.76
2023-04-21T12:12:07.358Z,1.13
2023-04-21T12:13:07.280Z,1.09
2023-04-21T12:14:07.179Z,0.97
2023-04-21T12:15:07.102Z,1.13
2023-04-21T12:16:07.040Z,0.81
2023-04-21T12:17:07.027Z,0.79
2023-04-21T12:18:06.938Z,1.04
2023-04-21T12:19:06.820Z,0.99
2023-04-21T12:20:06.748Z,0.89
2023-04-21T12:21:06.635Z,1.02
2023-04-21T12:22:06.534Z,0.92
2023-04-21T12:23:06.549Z,3.43
2023-04-21T12:24:06.442Z,1.18
2023-04-21T12:25:06.353Z,1.06
2023-04-21T12:26:06.246Z,1.01
2023-04-21T12:27:06.168Z,1.11
2023-04-21T12:28:06.085Z,1.43
2023-04-21T12:29:06.079Z,1.37
2023-04-21T12:30:05.997Z,1.21
2023-04-21T12:31:05.954Z,1.34
2023-04-21T12:32:06.221Z,0.97
2023-04-21T12:33:05.822Z,1.30
2023-04-21T12:34:05.711Z,1.48
2023-04-21T12:35:05.572Z,1.82
2023-04-21T12:36:05.469Z,1.16
2023-04-21T12:37:05.494Z,1.03
2023-04-21T12:38:05.395Z,1.73
2023-04-21T12:39:05.302Z,1.59
2023-04-21T12:40:05.220Z,1.73
2023-04-21T12:41:05.137Z,1.44
2023-04-21T12:42:05.063Z,1.25
2023-04-21T12:43:04.970Z,1.66
2023-04-21T12:44:04.887Z,1.21
2023-04-21T12:45:04.798Z,1.46
2023-04-21T12:46:04.780Z,1.49
2023-04-21T12:47:04.629Z,1.49
2023-04-21T12:48:04.670Z,1.46
2023-04-21T12:49:04.606Z,1.23
2023-04-21T12:50:04.653Z,1.47
2023-04-21T12:51:04.544Z,1.58
2023-04-21T12:52:04.460Z,1.40
2023-04-21T12:53:04.363Z,1.35
2023-04-21T12:54:04.281Z,1.45
2023-04-21T12:55:04.211Z,1.44
2023-04-21T12:56:05.336Z,1.43
2023-04-21T12:57:04.082Z,1.56
2023-04-21T12:58:04.003Z,1.39
2023-04-21T12:59:03.897Z,1.82
2023-04-21T13:00:03.810Z,1.23
2023-04-21T13:01:03.802Z,1.58
2023-04-21T13:02:03.806Z,1.49
2023-04-21T13:03:03.796Z,1.51
2023-04-21T13:04:03.761Z,1.59
2023-04-21T13:05:03.479Z,1.50
2023-04-21T13:06:03.412Z,1.61
2023-04-21T13:07:03.320Z,1.23
2023-04-21T13:08:03.231Z,1.19
2023-04-21T13:09:03.141Z,1.21
2023-04-21T13:10:03.148Z,1.10
2023-04-21T13:11:03.073Z,1.16
2023-04-21T13:12:03.074Z,1.12
2023-04-21T13:13:02.911Z,1.36
2023-04-21T13:14:02.833Z,1.10
2023-04-21T13:15:02.745Z,1.27
2023-04-21T13:16:02.660Z,1.43
2023-04-21T13:17:02.614Z,1.15
2023-04-21T13:18:02.478Z,1.27
2023-04-21T13:19:02.400Z,0.96